Time;durP1;ratioP1;P1;durP2;ratioP2;P2;SDS_P1;SDS_P2;PMS_P1;PMS_P2;Temp;Humidity;BMP_temperature;BMP_pressure;BME280_temperature;BME280_humidity;BME280_pressure;Samples;Min_cycle;Max_cycle;Signal;HPM_P1;HPM_P2
2022/05/25 00:00:30;;;;;;;14.00;10.10;;;21.10;99.90;;;;;;5050247;28;20458;-66
2022/05/25 00:02:58;;;;;;;14.20;9.97;;;21.10;99.90;;;;;;5050627;28;20532;-69
2022/05/25 00:05:25;;;;;;;11.17;9.27;;;21.10;99.90;;;;;;5050398;28;20457;-65
2022/05/25 00:07:52;;;;;;;10.80;8.70;;;21.20;99.90;;;;;;5050368;28;20450;-66
2022/05/25 00:10:19;;;;;;;9.50;8.60;;;21.10;99.90;;;;;;5050380;28;20472;-66
2022/05/25 00:12:46;;;;;;;11.30;9.90;;;21.10;99.90;;;;;;5050295;28;20504;-67
2022/05/25 00:15:15;;;;;;;10.20;8.20;;;21.00;99.90;;;;;;5050071;28;20477;-65
2022/05/25 00:17:42;;;;;;;12.10;9.37;;;21.00;99.90;;;;;;5050026;28;20810;-68
2022/05/25 00:20:10;;;;;;;14.47;9.03;;;21.00;99.90;;;;;;5050412;28;20452;-67
2022/05/25 00:22:43;;;;;;;12.03;9.00;;;20.90;99.90;;;;;;5050035;28;20462;-69
2022/05/25 00:25:13;;;;;;;11.10;8.80;;;20.90;99.90;;;;;;5049615;28;20528;-67
2022/05/25 00:27:41;;;;;;;10.43;8.47;;;20.90;99.90;;;;;;5049884;28;20456;-66
2022/05/25 00:30:09;;;;;;;9.90;8.70;;;20.80;99.90;;;;;;5049925;28;20465;-67
2022/05/25 00:32:37;;;;;;;12.40;9.07;;;20.80;99.90;;;;;;5049687;28;20498;-66
2022/05/25 00:35:06;;;;;;;8.77;7.90;;;20.80;99.90;;;;;;5049888;28;20462;-68
2022/05/25 00:37:33;;;;;;;11.47;8.73;;;20.70;99.90;;;;;;5050192;28;20875;-67
2022/05/25 00:40:00;;;;;;;9.97;8.73;;;20.70;99.90;;;;;;5049500;28;20997;-65
2022/05/25 00:42:27;;;;;;;9.63;8.63;;;20.70;99.90;;;;;;5049123;28;20496;-66
2022/05/25 00:44:54;;;;;;;13.33;8.63;;;20.70;99.90;;;;;;5049685;28;20450;-68
2022/05/25 00:47:25;;;;;;;11.97;9.17;;;20.80;99.90;;;;;;5049911;28;20457;-67
2022/05/25 00:49:54;;;;;;;10.23;8.47;;;20.80;99.90;;;;;;5049718;28;20452;-66
2022/05/25 00:52:21;;;;;;;10.60;9.27;;;20.70;99.90;;;;;;5049860;28;20498;-68
2022/05/25 00:54:51;;;;;;;10.27;8.60;;;20.60;99.90;;;;;;5049612;28;20468;-66
2022/05/25 00:57:21;;;;;;;13.17;8.77;;;20.60;99.90;;;;;;5049589;28;20919;-67
2022/05/25 00:59:57;;;;;;;11.43;8.83;;;20.60;99.90;;;;;;5049412;28;20938;-65
2022/05/25 01:02:24;;;;;;;11.30;9.23;;;20.60;99.90;;;;;;5049599;28;20830;-67
2022/05/25 01:04:53;;;;;;;10.50;9.40;;;20.60;99.90;;;;;;5049746;28;20449;-66
2022/05/25 01:07:39;;;;;;;10.20;9.23;;;20.40;99.90;;;;;;5049366;28;20446;-67
2022/05/25 01:10:19;;;;;;;9.70;8.17;;;20.40;99.90;;;;;;5049271;28;20456;-68
2022/05/25 01:13:03;;;;;;;11.67;9.03;;;20.40;99.90;;;;;;5049439;28;20493;-66
2022/05/25 01:15:39;;;;;;;10.47;9.40;;;20.30;99.90;;;;;;5049544;28;20537;-66
2022/05/25 01:18:27;;;;;;;10.47;9.43;;;20.40;99.90;;;;;;5049324;28;20452;-68
2022/05/25 01:21:00;;;;;;;9.63;8.67;;;20.40;99.90;;;;;;5049437;28;20833;-68
2022/05/25 01:23:54;;;;;;;9.20;8.30;;;20.40;99.90;;;;;;5049396;28;20446;-66
2022/05/25 01:26:36;;;;;;;10.60;8.60;;;20.40;99.90;;;;;;5049552;28;20454;-65
2022/05/25 01:29:46;;;;;;;11.93;8.90;;;20.60;99.90;;;;;;5049303;28;20460;-65
2022/05/25 01:32:21;;;;;;;10.57;9.50;;;20.40;99.90;;;;;;5033422;28;20525;-66
2022/05/25 01:34:54;;;;;;;10.03;9.03;;;20.50;99.90;;;;;;5049028;28;20804;-66
2022/05/25 01:37:38;;;;;;;10.40;9.40;;;20.40;99.90;;;;;;5048871;28;20460;-67
2022/05/25 01:40:13;;;;;;;12.90;9.10;;;20.40;99.90;;;;;;5049193;28;20465;-66
2022/05/25 01:42:47;;;;;;;12.13;8.70;;;20.40;99.90;;;;;;5048737;28;20485;-67
2022/05/25 01:45:16;;;;;;;9.57;8.60;;;20.40;99.90;;;;;;5049214;28;20536;-68
2022/05/25 01:47:49;;;;;;;12.40;9.20;;;20.40;99.90;;;;;;5049248;28;20486;-67
2022/05/25 01:50:21;;;;;;;10.23;9.00;;;20.40;99.90;;;;;;5049379;28;20449;-67
2022/05/25 01:52:52;;;;;;;10.07;8.80;;;20.40;99.90;;;;;;5049173;28;20580;-67
2022/05/25 01:55:24;;;;;;;12.63;9.67;;;20.40;99.90;;;;;;5049211;28;20455;-67
2022/05/25 01:57:56;;;;;;;13.53;10.03;;;20.30;99.90;;;;;;5049188;28;20453;-66
2022/05/25 02:00:30;;;;;;;10.30;9.20;;;20.40;99.90;;;;;;5049174;28;20826;-68
2022/05/25 02:05:53;;;;;;;10.87;9.17;;;20.40;99.90;;;;;;5048829;28;20918;-66
2022/05/25 02:08:35;;;;;;;10.27;9.27;;;20.30;99.90;;;;;;5048926;28;20927;-66
2022/05/25 02:11:13;;;;;;;11.83;9.40;;;20.30;99.90;;;;;;5049001;28;20481;-66
2022/05/25 02:13:52;;;;;;;10.37;8.37;;;20.30;99.90;;;;;;5049004;28;20490;-65
2022/05/25 02:16:31;;;;;;;10.50;9.40;;;20.30;99.90;;;;;;5048776;28;20464;-66
2022/05/25 02:19:10;;;;;;;10.50;8.93;;;20.00;99.90;;;;;;5050900;28;20457;-67
2022/05/25 02:21:44;;;;;;;10.60;9.57;;;19.90;99.90;;;;;;5052551;28;20471;-68
2022/05/25 02:24:16;;;;;;;10.00;9.00;;;20.00;99.90;;;;;;5052308;28;20476;-67
2022/05/25 02:26:48;;;;;;;10.67;9.67;;;20.00;99.90;;;;;;5052205;28;20954;-65
2022/05/25 02:29:20;;;;;;;10.70;9.40;;;19.80;99.90;;;;;;5052273;28;20454;-66
2022/05/25 02:31:51;;;;;;;12.07;10.87;;;19.50;99.90;;;;;;5052065;28;20477;-67
2022/05/25 02:34:21;;;;;;;12.60;11.30;;;19.40;99.90;;;;;;5052295;28;20576;-67
2022/05/25 02:36:50;;;;;;;11.23;10.13;;;19.40;99.90;;;;;;5051948;28;20937;-66
2022/05/25 02:39:17;;;;;;;11.30;10.20;;;19.30;99.90;;;;;;5052077;28;20536;-67
2022/05/25 02:41:49;;;;;;;13.33;11.93;;;19.20;99.90;;;;;;5051517;28;20501;-68
2022/05/25 02:44:17;;;;;;;14.00;10.97;;;19.20;99.90;;;;;;5052052;28;20957;-67
2022/05/25 02:46:44;;;;;;;11.93;10.83;;;19.10;99.90;;;;;;5052000;28;20450;-66
2022/05/25 02:49:11;;;;;;;16.03;10.90;;;19.10;99.90;;;;;;5052076;28;20465;-66
2022/05/25 02:51:40;;;;;;;12.30;11.00;;;19.10;99.90;;;;;;5051516;28;20978;-66
2022/05/25 02:54:10;;;;;;;13.50;10.10;;;19.20;99.90;;;;;;5051467;28;20494;-66
2022/05/25 02:56:38;;;;;;;13.77;10.90;;;19.40;99.90;;;;;;5051597;28;20537;-66
2022/05/25 02:59:06;;;;;;;11.53;10.03;;;19.50;99.90;;;;;;5051790;28;20465;-67
2022/05/25 03:01:33;;;;;;;14.27;10.60;;;19.60;99.90;;;;;;5051855;28;20528;-65
2022/05/25 03:04:00;;;;;;;13.13;11.60;;;19.70;99.90;;;;;;5051716;28;20450;-65
2022/05/25 03:06:27;;;;;;;13.33;12.03;;;19.70;99.90;;;;;;5051644;28;20450;-66
2022/05/25 03:08:55;;;;;;;12.20;11.10;;;19.60;99.90;;;;;;5051231;28;20477;-65
2022/05/25 03:11:22;;;;;;;14.70;11.70;;;19.60;99.90;;;;;;5051644;28;20481;-66
2022/05/25 03:13:49;;;;;;;12.07;10.87;;;19.70;99.90;;;;;;5051070;28;20486;-67
2022/05/25 03:16:18;;;;;;;14.20;11.23;;;19.60;99.90;;;;;;5051547;28;20519;-68
2022/05/25 03:18:46;;;;;;;11.40;10.33;;;19.60;99.90;;;;;;5051221;28;20815;-66
2022/05/25 03:21:13;;;;;;;13.27;12.00;;;19.70;99.90;;;;;;5051209;28;20481;-67
2022/05/25 03:23:40;;;;;;;12.80;11.50;;;19.50;99.90;;;;;;5051106;28;20449;-65
2022/05/25 03:26:09;;;;;;;13.30;12.00;;;19.20;99.90;;;;;;5051356;28;20549;-67
2022/05/25 03:28:36;;;;;;;14.63;13.13;;;18.90;99.90;;;;;;5051532;28;20458;-67
2022/05/25 03:31:04;;;;;;;12.93;11.40;;;18.80;99.90;;;;;;5051066;28;20474;-65
2022/05/25 03:33:31;;;;;;;12.20;10.47;;;18.80;99.90;;;;;;5050850;28;20489;-66
2022/05/25 03:35:58;;;;;;;12.33;10.83;;;18.90;99.90;;;;;;5050997;28;20456;-68
2022/05/25 03:38:27;;;;;;;14.10;11.37;;;19.20;99.90;;;;;;5051166;28;20450;-67
2022/05/25 03:40:54;;;;;;;14.87;11.07;;;19.30;99.90;;;;;;5050644;28;20572;-67
2022/05/25 03:43:31;;;;;;;14.00;11.23;;;19.50;99.90;;;;;;5051001;28;20450;-67
2022/05/25 03:45:58;;;;;;;11.30;10.10;;;19.60;99.90;;;;;;5051102;28;20488;-68
2022/05/25 03:48:25;;;;;;;13.30;11.20;;;19.70;99.90;;;;;;5050696;28;20453;-66
2022/05/25 03:50:52;;;;;;;14.17;11.73;;;19.60;99.90;;;;;;5050769;28;20456;-67
2022/05/25 03:53:19;;;;;;;14.10;11.67;;;19.20;99.90;;;;;;5050798;28;20488;-67
2022/05/25 03:55:47;;;;;;;13.53;12.13;;;19.00;99.90;;;;;;5050754;28;20461;-68
2022/05/25 03:58:14;;;;;;;12.77;11.47;;;18.80;99.90;;;;;;5050736;28;20456;-67
2022/05/25 04:00:44;;;;;;;13.43;11.80;;;18.90;99.90;;;;;;5050411;28;20449;-68
2022/05/25 04:03:15;;;;;;;14.70;11.47;;;18.90;99.90;;;;;;5050794;28;20860;-69
2022/05/25 04:05:43;;;;;;;13.93;12.63;;;19.10;99.90;;;;;;5050879;28;20450;-66
2022/05/25 04:08:11;;;;;;;13.70;12.23;;;19.20;99.90;;;;;;5050566;28;20458;-64
2022/05/25 04:10:39;;;;;;;14.53;12.00;;;19.50;99.90;;;;;;5049839;28;20461;-63
2022/05/25 04:13:06;;;;;;;14.50;12.80;;;19.50;99.90;;;;;;5050136;28;20493;-63
2022/05/25 04:15:35;;;;;;;15.60;12.00;;;19.60;99.90;;;;;;5049835;28;20458;-64
2022/05/25 04:18:04;;;;;;;14.00;12.70;;;19.50;99.90;;;;;;5050072;28;20450;-65
2022/05/25 04:20:32;;;;;;;15.37;13.73;;;19.40;99.90;;;;;;5050410;28;20460;-65
2022/05/25 04:22:59;;;;;;;17.90;12.43;;;19.60;99.90;;;;;;5050274;28;20457;-63
2022/05/25 04:25:27;;;;;;;14.60;13.07;;;19.80;99.90;;;;;;5049845;28;20458;-63
2022/05/25 04:27:56;;;;;;;13.20;11.87;;;20.00;99.90;;;;;;5049664;28;20974;-64
2022/05/25 04:30:25;;;;;;;13.30;11.70;;;20.20;99.90;;;;;;5049585;28;20831;-65
2022/05/25 04:32:52;;;;;;;14.20;12.80;;;20.40;99.90;;;;;;5049899;28;20480;-64
2022/05/25 04:35:22;;;;;;;13.20;11.87;;;20.40;99.90;;;;;;5049943;28;20454;-64
2022/05/25 04:37:49;;;;;;;15.33;13.37;;;20.50;99.90;;;;;;5049614;28;20450;-67
2022/05/25 04:40:18;;;;;;;14.50;12.80;;;20.60;99.90;;;;;;5049707;28;20453;-64
2022/05/25 04:42:46;;;;;;;15.77;14.17;;;20.70;99.90;;;;;;5049155;28;20482;-66
2022/05/25 04:45:14;;;;;;;15.33;12.80;;;20.60;99.90;;;;;;5050045;28;20858;-64
2022/05/25 04:47:42;;;;;;;16.93;12.80;;;20.70;99.90;;;;;;5049882;28;20438;-64
2022/05/25 04:50:11;;;;;;;14.90;13.40;;;20.90;99.90;;;;;;5049756;28;20453;-64
2022/05/25 04:52:40;;;;;;;15.20;13.23;;;20.90;99.90;;;;;;5049371;28;20473;-66
2022/05/25 04:55:09;;;;;;;16.83;13.60;;;21.10;99.90;;;;;;5049449;28;20489;-67
2022/05/25 04:57:35;;;;;;;15.33;13.77;;;21.10;99.90;;;;;;5049584;28;20454;-64
2022/05/25 05:00:07;;;;;;;14.57;13.17;;;21.10;99.90;;;;;;5049607;28;20449;-68
2022/05/25 05:02:34;;;;;;;14.13;12.73;;;21.20;99.90;;;;;;5049603;28;20515;-67
2022/05/25 05:05:02;;;;;;;13.83;12.40;;;21.30;99.90;;;;;;5049382;28;20450;-67
2022/05/25 05:07:33;;;;;;;15.07;13.47;;;21.30;99.90;;;;;;5049601;28;20460;-68
2022/05/25 05:10:02;;;;;;;15.57;13.80;;;21.40;99.90;;;;;;5049266;28;20792;-69
2022/05/25 05:12:30;;;;;;;16.00;14.37;;;21.60;99.90;;;;;;5049024;28;20477;-70
2022/05/25 05:14:57;;;;;;;17.20;15.40;;;21.60;99.90;;;;;;5049588;28;20505;-69
2022/05/25 05:17:25;;;;;;;16.13;14.53;;;21.70;99.90;;;;;;5049436;28;20477;-70
2022/05/25 05:19:52;;;;;;;22.30;14.13;;;21.80;99.90;;;;;;5049395;28;20814;-67
2022/05/25 05:22:19;;;;;;;15.67;14.07;;;21.80;99.90;;;;;;5049346;28;20830;-70
2022/05/25 05:24:46;;;;;;;18.40;13.87;;;21.90;99.90;;;;;;5049339;28;20507;-71
2022/05/25 05:27:15;;;;;;;19.23;14.63;;;22.00;99.90;;;;;;5049068;28;20458;-70
2022/05/25 05:29:42;;;;;;;17.70;15.17;;;22.00;99.90;;;;;;5049439;28;20456;-66
2022/05/25 05:32:10;;;;;;;16.00;14.43;;;22.00;99.90;;;;;;5048926;28;20572;-68
2022/05/25 05:34:37;;;;;;;14.10;12.70;;;22.10;99.90;;;;;;5049280;28;20493;-66
2022/05/25 05:37:09;;;;;;;20.37;12.97;;;22.20;99.90;;;;;;5048989;28;20823;-67
2022/05/25 05:39:41;;;;;;;13.83;12.43;;;22.20;99.90;;;;;;5049189;28;20456;-68
2022/05/25 05:42:13;;;;;;;16.73;13.23;;;22.40;99.90;;;;;;5048725;28;20496;-67
2022/05/25 05:44:47;;;;;;;18.33;15.37;;;22.50;99.90;;;;;;5048912;28;20457;-67
2022/05/25 05:47:19;;;;;;;16.40;14.20;;;22.30;99.90;;;;;;5049212;28;20446;-67
2022/05/25 05:49:46;;;;;;;16.70;14.10;;;22.20;99.90;;;;;;5048807;28;20815;-69
2022/05/25 05:52:13;;;;;;;15.37;13.67;;;22.40;99.90;;;;;;5048970;28;20477;-67
2022/05/25 05:54:40;;;;;;;16.73;13.23;;;22.50;99.90;;;;;;5051677;28;20836;-66
2022/05/25 05:57:08;;;;;;;16.53;13.87;;;22.60;99.90;;;;;;5052472;28;20450;-67
2022/05/25 05:59:35;;;;;;;19.10;14.80;;;22.60;99.90;;;;;;5052138;28;20453;-67
2022/05/25 06:02:04;;;;;;;18.80;13.90;;;22.70;99.90;;;;;;5052724;28;20504;-66
2022/05/25 06:04:31;;;;;;;17.83;14.63;;;22.90;99.90;;;;;;5052742;28;20454;-67
2022/05/25 06:06:58;;;;;;;20.23;15.10;;;22.90;99.90;;;;;;5052687;28;20461;-66
2022/05/25 06:09:25;;;;;;;22.87;15.00;;;23.10;99.90;;;;;;5052626;28;20449;-67
2022/05/25 06:11:52;;;;;;;18.33;15.83;;;23.00;99.90;;;;;;5052256;28;20863;-67
2022/05/25 06:14:19;;;;;;;15.17;13.47;;;23.00;99.90;;;;;;5052350;28;20494;-66
2022/05/25 06:19:33;;;;;;;17.07;15.27;;;23.30;99.90;;;;;;5052473;28;20433;-68
2022/05/25 06:22:02;;;;;;;15.70;14.03;;;23.30;99.90;;;;;;5052340;28;20474;-66
2022/05/25 06:24:36;;;;;;;18.40;14.63;;;23.30;99.90;;;;;;5052022;28;20449;-66
2022/05/25 06:27:04;;;;;;;18.50;15.13;;;23.40;99.90;;;;;;5052330;28;20465;-66
2022/05/25 06:29:31;;;;;;;18.87;15.00;;;23.50;99.90;;;;;;5052345;28;20830;-70
2022/05/25 06:31:58;;;;;;;16.37;13.73;;;23.70;99.90;;;;;;5052222;28;20474;-68
2022/05/25 06:34:25;;;;;;;14.77;13.27;;;23.90;99.90;;;;;;5052089;28;20497;-68
2022/05/25 06:36:53;;;;;;;14.77;12.57;;;24.00;99.90;;;;;;5051760;28;20974;-69
2022/05/25 06:39:20;;;;;;;17.07;13.80;;;24.20;99.90;;;;;;5051969;28;20458;-69
2022/05/25 06:41:47;;;;;;;15.90;13.93;;;24.40;99.90;;;;;;5051559;28;20500;-68
2022/05/25 06:44:15;;;;;;;14.53;12.20;;;24.30;99.90;;;;;;5051943;28;20457;-68
2022/05/25 06:46:42;;;;;;;14.73;13.13;;;24.40;99.90;;;;;;5052004;28;20462;-68
2022/05/25 06:49:09;;;;;;;15.17;12.27;;;24.60;99.90;;;;;;5051803;28;20454;-68
2022/05/25 06:51:37;;;;;;;15.67;14.03;;;24.70;99.90;;;;;;5051696;28;20481;-68
2022/05/25 06:54:06;;;;;;;16.07;13.23;;;24.70;99.90;;;;;;5051631;28;20484;-69
2022/05/25 06:56:33;;;;;;;20.53;13.90;;;24.60;99.90;;;;;;5052001;28;20495;-68
2022/05/25 06:59:00;;;;;;;15.33;12.83;;;24.60;99.90;;;;;;5051744;28;20458;-69
2022/05/25 07:01:28;;;;;;;15.03;13.50;;;24.80;99.90;;;;;;5051497;28;20547;-68
2022/05/25 07:03:56;;;;;;;15.30;12.80;;;25.00;99.90;;;;;;5050971;28;20454;-69
2022/05/25 07:06:24;;;;;;;13.03;11.73;;;24.90;99.90;;;;;;5051654;28;20770;-68
2022/05/25 07:08:51;;;;;;;13.80;12.40;;;25.00;99.90;;;;;;5051264;28;20477;-68
2022/05/25 07:11:21;;;;;;;15.27;12.57;;;25.10;99.90;;;;;;5051230;28;20477;-68
2022/05/25 07:13:49;;;;;;;13.83;12.47;;;25.30;99.90;;;;;;5051435;28;20450;-68
2022/05/25 07:16:18;;;;;;;15.70;11.40;;;25.30;99.90;;;;;;5051367;28;20957;-68
2022/05/25 07:18:47;;;;;;;15.63;11.77;;;25.50;99.90;;;;;;5051247;28;20459;-68
2022/05/25 07:21:16;;;;;;;13.77;12.13;;;25.70;99.90;;;;;;5051109;28;20470;-68
2022/05/25 07:23:45;;;;;;;12.30;10.63;;;25.90;99.90;;;;;;5051455;28;20569;-68
2022/05/25 07:26:13;;;;;;;14.80;13.40;;;26.00;99.90;;;;;;5050578;28;20453;-69
2022/05/25 07:28:42;;;;;;;14.50;11.07;;;25.70;99.90;;;;;;5050762;28;20457;-69
2022/05/25 07:31:12;;;;;;;14.03;10.13;;;25.80;99.90;;;;;;5050630;28;21313;-69
2022/05/25 07:33:44;;;;;;;12.90;11.50;;;26.00;99.90;;;;;;5050894;28;20458;-69
2022/05/25 07:36:12;;;;;;;12.93;10.73;;;26.30;99.90;;;;;;5050390;28;20526;-69
2022/05/25 07:38:44;;;;;;;12.97;11.57;;;26.50;99.90;;;;;;5051108;28;20946;-69
2022/05/25 07:41:11;;;;;;;20.80;10.77;;;26.40;99.90;;;;;;5050413;28;21337;-69
2022/05/25 07:43:42;;;;;;;13.63;11.00;;;26.50;99.90;;;;;;5050462;28;20450;-69
2022/05/25 07:46:10;;;;;;;11.97;10.87;;;26.80;99.90;;;;;;5050652;28;20449;-69
2022/05/25 07:48:37;;;;;;;13.97;11.80;;;27.20;99.90;;;;;;5050453;28;20469;-65
2022/05/25 07:51:05;;;;;;;12.23;10.40;;;27.40;99.90;;;;;;5050772;28;20829;-71
2022/05/25 07:56:16;;;;;;;12.50;10.70;;;27.50;99.90;;;;;;5050502;28;21012;-69
2022/05/25 07:58:45;;;;;;;12.67;11.37;;;27.30;99.90;;;;;;5050240;28;20469;-69
2022/05/25 08:01:15;;;;;;;12.63;10.17;;;27.40;99.90;;;;;;5050429;28;20450;-67
2022/05/25 08:06:30;;;;;;;13.20;9.60;;;27.70;99.90;;;;;;5050319;28;20511;-69
2022/05/25 08:08:57;;;;;;;13.10;10.27;;;27.70;99.90;;;;;;5050160;28;20474;-68
2022/05/25 08:11:25;;;;;;;11.67;9.97;;;27.70;99.90;;;;;;5050201;28;20481;-68
2022/05/25 08:13:57;;;;;;;11.13;9.50;;;27.70;99.90;;;;;;5050671;28;20806;-67
2022/05/25 08:16:25;;;;;;;13.50;10.37;;;27.90;99.90;;;;;;5049454;28;20449;-69
2022/05/25 08:18:52;;;;;;;16.67;9.97;;;28.10;99.90;;;;;;5050057;28;20596;-67
2022/05/25 08:21:19;;;;;;;12.37;10.70;;;28.30;99.90;;;;;;5049853;28;20516;-66
2022/05/25 08:23:46;;;;;;;12.87;10.80;;;28.60;99.90;;;;;;5050062;28;20462;-67
2022/05/25 08:26:13;;;;;;;13.67;11.07;;;28.60;99.90;;;;;;5050036;28;20446;-66
2022/05/25 08:28:40;;;;;;;14.40;11.23;;;28.20;99.90;;;;;;5050131;28;20827;-69
2022/05/25 08:31:08;;;;;;;12.50;10.23;;;28.10;99.90;;;;;;5049526;28;20474;-67
2022/05/25 08:33:35;;;;;;;17.23;10.57;;;28.30;99.90;;;;;;5049730;28;20469;-67
2022/05/25 08:36:03;;;;;;;17.17;12.23;;;28.30;99.90;;;;;;5049738;28;20493;-68
2022/05/25 08:38:30;;;;;;;17.27;12.00;;;28.30;99.90;;;;;;5049490;28;20930;-67
2022/05/25 08:40:58;;;;;;;14.00;11.50;;;28.30;99.90;;;;;;5049017;28;20928;-67
2022/05/25 08:43:29;;;;;;;13.30;10.33;;;28.60;99.90;;;;;;5049730;28;20452;-67
2022/05/25 08:46:00;;;;;;;18.13;10.20;;;28.90;99.90;;;;;;5049773;28;20799;-69
2022/05/25 08:48:30;;;;;;;15.80;11.90;;;29.20;99.90;;;;;;5049565;28;20464;-69
2022/05/25 08:51:02;;;;;;;17.10;11.50;;;29.40;99.10;;;;;;5049561;28;20840;-67
2022/05/25 08:53:29;;;;;;;15.27;11.10;;;29.60;98.80;;;;;;5049710;28;20450;-68
2022/05/25 08:56:02;;;;;;;14.63;11.07;;;29.70;98.80;;;;;;5049437;28;20497;-65
2022/05/25 08:58:39;;;;;;;13.30;11.20;;;29.70;97.40;;;;;;5049397;28;20942;-65
2022/05/25 09:01:07;;;;;;;20.33;11.43;;;29.60;97.00;;;;;;5049433;28;20523;-68
2022/05/25 09:03:45;;;;;;;16.83;11.30;;;29.80;97.20;;;;;;5049634;28;20450;-68
2022/05/25 09:06:20;;;;;;;14.17;12.20;;;29.80;96.20;;;;;;5049480;28;20504;-64
2022/05/25 09:08:56;;;;;;;11.80;10.60;;;29.70;95.90;;;;;;5048853;28;20453;-66
2022/05/25 09:11:30;;;;;;;17.30;11.27;;;29.70;95.30;;;;;;5049059;28;20485;-68
2022/05/25 09:14:01;;;;;;;15.10;10.87;;;29.70;95.10;;;;;;5049274;28;20457;-68
2022/05/25 09:16:32;;;;;;;13.20;10.47;;;29.70;95.30;;;;;;5049224;28;20489;-69
2022/05/25 09:19:07;;;;;;;12.20;10.90;;;29.70;94.90;;;;;;5049424;28;20453;-68
2022/05/25 09:21:37;;;;;;;11.60;10.40;;;29.70;94.90;;;;;;5048788;28;20479;-67
2022/05/25 09:24:11;;;;;;;13.90;11.40;;;29.60;95.50;;;;;;5049198;28;20489;-68
2022/05/25 09:26:38;;;;;;;13.67;12.07;;;29.90;96.50;;;;;;5049342;28;20818;-66
2022/05/25 09:29:09;;;;;;;14.37;12.27;;;30.10;96.10;;;;;;5053440;28;20454;-65
2022/05/25 09:31:42;;;;;;;16.07;12.57;;;30.30;96.40;;;;;;5053174;28;20477;-68
2022/05/25 09:34:17;;;;;;;15.30;11.57;;;30.50;96.50;;;;;;5053005;28;20458;-66
2022/05/25 09:36:49;;;;;;;13.50;12.03;;;30.70;95.80;;;;;;5053180;28;20491;-64
2022/05/25 09:39:23;;;;;;;12.33;11.03;;;31.00;95.70;;;;;;5053251;28;20507;-67
2022/05/25 09:41:56;;;;;;;17.27;11.07;;;31.30;94.20;;;;;;5052806;28;20531;-69
2022/05/25 09:44:24;;;;;;;14.07;11.87;;;31.40;93.20;;;;;;5052786;28;20491;-67
2022/05/25 09:46:55;;;;;;;12.40;11.10;;;31.40;92.30;;;;;;5052902;28;20449;-70
2022/05/25 09:49:47;;;;;;;14.20;12.30;;;31.40;92.30;;;;;;5052844;28;20461;-66
2022/05/25 09:52:16;;;;;;;16.53;11.73;;;31.40;92.30;;;;;;5052782;28;20474;-65
2022/05/25 09:54:49;;;;;;;16.60;12.60;;;31.50;92.70;;;;;;5052487;28;20441;-67
2022/05/25 09:57:26;;;;;;;16.70;12.67;;;31.40;91.90;;;;;;5052678;28;20472;-71
2022/05/25 10:00:00;;;;;;;18.03;13.53;;;31.10;92.70;;;;;;5052947;28;20453;-67
2022/05/25 10:02:31;;;;;;;18.20;13.20;;;31.10;92.90;;;;;;5052636;28;20474;-67
2022/05/25 10:05:13;;;;;;;15.00;13.10;;;30.90;92.20;;;;;;5052611;28;20449;-66
2022/05/25 10:07:49;;;;;;;16.77;13.47;;;30.90;92.00;;;;;;5052508;28;20450;-69
2022/05/25 10:10:26;;;;;;;15.53;11.63;;;31.00;92.00;;;;;;5052740;28;20456;-69
2022/05/25 10:13:04;;;;;;;15.47;10.53;;;31.30;91.80;;;;;;5052787;28;20560;-70
2022/05/25 10:15:34;;;;;;;15.90;10.80;;;31.60;91.00;;;;;;5052213;28;20596;-69
2022/05/25 10:18:04;;;;;;;16.97;10.70;;;31.80;90.60;;;;;;5052520;28;20503;-68
2022/05/25 10:20:44;;;;;;;14.90;11.80;;;32.10;90.70;;;;;;5052484;28;20540;-70
2022/05/25 10:23:19;;;;;;;15.03;12.33;;;32.10;89.80;;;;;;5052431;28;20458;-70
2022/05/25 10:25:48;;;;;;;11.70;10.40;;;32.20;89.90;;;;;;5052550;28;20953;-68
2022/05/25 10:28:22;;;;;;;18.53;11.73;;;32.40;90.30;;;;;;5052115;28;20453;-68
2022/05/25 10:36:52;;;;;;;12.40;10.90;;;32.90;86.70;;;;;;5052057;28;20529;-65
2022/05/25 10:39:24;;;;;;;14.80;12.10;;;33.20;86.10;;;;;;5050972;28;20508;-70
2022/05/25 10:42:06;;;;;;;13.00;11.60;;;33.20;82.60;;;;;;5051408;28;20593;-67
2022/05/25 10:44:42;;;;;;;13.47;11.37;;;33.10;81.90;;;;;;5052141;28;20454;-66
2022/05/25 10:47:22;;;;;;;12.00;10.80;;;33.20;82.70;;;;;;5051713;28;20445;-68
2022/05/25 10:49:49;;;;;;;14.17;10.70;;;33.40;84.00;;;;;;5051808;28;20493;-66
2022/05/25 10:52:25;;;;;;;14.90;11.10;;;33.60;82.70;;;;;;5051745;28;20470;-66
2022/05/25 10:54:52;;;;;;;13.43;10.40;;;33.70;80.30;;;;;;5051848;28;20533;-69
2022/05/25 10:57:59;;;;;;;12.53;9.80;;;33.80;81.90;;;;;;5051364;28;20954;-72
2022/05/25 11:00:36;;;;;;;14.83;11.57;;;34.00;75.20;;;;;;5051774;28;20449;-68
2022/05/25 11:03:23;;;;;;;14.30;11.17;;;34.10;77.10;;;;;;5051067;28;20973;-67
2022/05/25 11:05:57;;;;;;;14.50;11.83;;;34.10;76.30;;;;;;5050681;28;20462;-69
2022/05/25 11:08:40;;;;;;;16.80;10.73;;;34.10;77.90;;;;;;5051691;28;20468;-67
2022/05/25 11:11:14;;;;;;;15.07;10.47;;;34.30;76.40;;;;;;5050981;28;20482;-68
2022/05/25 11:14:05;;;;;;;14.50;10.53;;;34.50;75.80;;;;;;5051255;28;20477;-70
2022/05/25 11:16:49;;;;;;;13.00;10.50;;;34.60;72.90;;;;;;5050950;28;20572;-68
2022/05/25 11:19:35;;;;;;;12.60;10.50;;;34.80;71.70;;;;;;5051254;28;20465;-71
2022/05/25 11:22:15;;;;;;;21.33;10.27;;;35.00;68.50;;;;;;5051323;28;20473;-69
2022/05/25 11:25:07;;;;;;;11.57;9.13;;;34.80;68.60;;;;;;5051048;28;20516;-69
2022/05/25 11:27:45;;;;;;;12.63;10.50;;;35.00;69.90;;;;;;5050999;28;20449;-72
2022/05/25 11:30:18;;;;;;;13.07;9.43;;;35.20;69.50;;;;;;5050866;28;20466;-69
2022/05/25 11:33:02;;;;;;;16.50;10.30;;;35.30;67.90;;;;;;5050967;28;20474;-70
2022/05/25 11:35:46;;;;;;;15.37;9.33;;;35.50;68.30;;;;;;5046959;28;20486;-67
2022/05/25 11:38:23;;;;;;;12.80;9.13;;;35.70;66.90;;;;;;5050869;28;20446;-70
2022/05/25 11:41:11;;;;;;;13.70;9.30;;;35.90;65.60;;;;;;5050428;28;20465;-71
2022/05/25 11:44:03;;;;;;;12.80;7.97;;;36.20;63.90;;;;;;5050583;28;20446;-70
2022/05/25 11:46:40;;;;;;;11.73;7.73;;;36.30;59.60;;;;;;5050983;28;20450;-70
2022/05/25 11:49:35;;;;;;;11.70;7.40;;;36.50;58.50;;;;;;5050413;28;20508;-69
2022/05/25 11:52:23;;;;;;;11.27;6.03;;;36.90;55.00;;;;;;5050164;28;20470;-69
2022/05/25 11:55:08;;;;;;;12.93;6.67;;;37.10;52.50;;;;;;5050610;28;20453;-70
2022/05/25 11:57:45;;;;;;;10.30;7.10;;;37.30;52.90;;;;;;5050324;28;20450;-70
2022/05/25 12:00:27;;;;;;;12.70;7.40;;;37.50;51.70;;;;;;5050203;28;20964;-69
2022/05/25 12:03:16;;;;;;;11.37;6.50;;;37.70;51.20;;;;;;5050126;28;20552;-70
2022/05/25 12:05:53;;;;;;;15.03;6.30;;;37.60;49.60;;;;;;5050318;28;20442;-70
2022/05/25 12:08:47;;;;;;;14.33;7.07;;;37.70;48.60;;;;;;5050140;28;20541;-68
2022/05/25 12:11:25;;;;;;;13.07;6.77;;;37.80;49.30;;;;;;5047753;28;20482;-69
2022/05/25 12:14:01;;;;;;;13.00;5.63;;;37.80;50.60;;;;;;5050506;28;20454;-69
2022/05/25 12:16:35;;;;;;;11.60;7.00;;;37.80;50.30;;;;;;5050126;28;20481;-67
2022/05/25 12:19:08;;;;;;;12.70;6.90;;;38.10;51.00;;;;;;5050822;28;20454;-68
2022/05/25 12:21:40;;;;;;;10.50;7.33;;;38.30;50.70;;;;;;5052323;28;20469;-67
2022/05/25 12:24:12;;;;;;;14.00;6.40;;;38.60;48.60;;;;;;5052046;28;20980;-68
2022/05/25 12:26:40;;;;;;;11.50;6.07;;;38.60;47.70;;;;;;5032108;28;20545;-69
2022/05/25 12:29:16;;;;;;;12.53;5.30;;;38.60;45.30;;;;;;5049957;28;20461;-69
2022/05/25 12:31:45;;;;;;;12.07;5.10;;;37.80;42.60;;;;;;5049309;28;20576;-68
2022/05/25 12:34:13;;;;;;;10.10;4.20;;;37.40;43.10;;;;;;5049702;28;20457;-69
2022/05/25 12:36:41;;;;;;;13.00;4.87;;;36.60;41.80;;;;;;5049662;28;20493;-69
2022/05/25 12:39:10;;;;;;;9.43;4.03;;;36.30;42.30;;;;;;5049995;28;20446;-69
2022/05/25 12:41:38;;;;;;;9.90;4.27;;;36.60;42.80;;;;;;5049024;28;20496;-68
2022/05/25 12:49:49;;;;;;;10.10;4.40;;;36.80;40.90;;;;;;5049106;28;20934;-68
2022/05/25 12:52:46;;;;;;;10.47;4.50;;;36.50;42.10;;;;;;5049141;28;20474;-67
2022/05/25 12:55:34;;;;;;;9.00;3.60;;;36.00;43.20;;;;;;5049453;28;20907;-68
2022/05/25 12:58:02;;;;;;;12.63;4.70;;;36.30;42.80;;;;;;5049241;28;20903;-67
2022/05/25 13:01:00;;;;;;;15.47;4.47;;;36.50;43.00;;;;;;5049030;28;20450;-68
2022/05/25 13:03:43;;;;;;;10.73;4.57;;;36.70;42.20;;;;;;5048825;28;20457;-67
2022/05/25 13:06:11;;;;;;;11.70;4.60;;;36.90;41.50;;;;;;5048861;28;20462;-68
2022/05/25 13:09:07;;;;;;;8.53;4.17;;;37.10;44.00;;;;;;5048922;28;20453;-68
2022/05/25 13:11:41;;;;;;;9.33;5.07;;;37.50;42.30;;;;;;5048592;28;20520;-69
2022/05/25 13:14:41;;;;;;;15.93;4.80;;;38.10;41.90;;;;;;5048991;28;20473;-68
2022/05/25 13:17:11;;;;;;;11.43;4.60;;;38.00;41.50;;;;;;5048795;28;20477;-68